Terminal Aerodrome Forecast
Issued by NWS Cleveland, OH

Home | Current Version | Previous Version | Text Only | Print | Product List | Glossary Off
Versions: 1 2 3 4 5 6 7 8 9 10 11 12 13 14 15 16 17 18 19 20 21 22 23 24

000
FTUS41 KCLE 272000 AAB
TAFMFD
TAF AMD
KMFD 272045Z 2721/2818 22010KT P6SM VCTS SCT012CB BKN040
      TEMPO 2721/2724 BKN012CB
     FM280000 29010KT 3SM -TSRA OVC012CB
      TEMPO 2800/2802 VRB25G35KT 1SM -TSRA OVC008CB
     FM280300 29008KT P6SM BKN020 OVC040
     FM281100 31010KT 5SM BR OVC006
     FM281500 33012KT P6SM OVC015=

USA.gov is the U.S. government's official web portal to all federal, state and local government web resources and services.